Time;durP1;ratioP1;P1;durP2;ratioP2;P2;SDS_P1;SDS_P2;PMS_P1;PMS_P2;Temp;Humidity;BMP_temperature;BMP_pressure;BME280_temperature;BME280_humidity;BME280_pressure;Samples;Min_cycle;Max_cycle;Signal;HPM_P1;HPM_P2
2022/06/23 00:01:58;;;;;;;2.85;2.00;;;23.90;86.00;;;;;;5014611;28;20204;-76
2022/06/23 00:04:53;;;;;;;4.22;2.03;;;23.90;86.00;;;;;;5014066;28;20184;-76
2022/06/23 00:07:31;;;;;;;2.33;2.00;;;23.90;86.00;;;;;;5012139;28;20265;-76
2022/06/23 00:10:20;;;;;;;3.60;2.58;;;23.80;85.80;;;;;;5014749;28;20211;-76
2022/06/23 00:12:46;;;;;;;3.97;2.13;;;23.80;85.80;;;;;;5013845;28;20275;-76
2022/06/23 00:15:51;;;;;;;2.45;1.75;;;23.80;85.80;;;;;;5014479;28;20172;-76
2022/06/23 00:18:25;;;;;;;2.38;1.73;;;23.90;85.80;;;;;;5011001;28;20295;-75
2022/06/23 00:20:59;;;;;;;3.50;1.75;;;23.90;85.80;;;;;;5032842;28;20198;-76
2022/06/23 00:23:39;;;;;;;3.45;1.98;;;23.90;85.70;;;;;;5048553;28;20216;-76
2022/06/23 00:26:23;;;;;;;3.70;1.98;;;23.90;85.80;;;;;;5037356;28;20228;-76
2022/06/23 00:28:58;;;;;;;2.75;2.08;;;23.80;85.70;;;;;;5053912;28;20213;-76
2022/06/23 00:31:32;;;;;;;3.63;2.05;;;23.90;85.70;;;;;;5055075;28;20185;-76
2022/06/23 00:34:02;;;;;;;3.70;2.00;;;23.90;85.70;;;;;;5053188;28;20549;-76
2022/06/23 00:36:47;;;;;;;2.75;2.13;;;23.80;85.50;;;;;;5052197;28;20183;-76
2022/06/23 00:39:35;;;;;;;3.40;1.83;;;23.80;85.30;;;;;;5015104;28;20235;-76
2022/06/23 00:42:26;;;;;;;3.38;2.15;;;23.80;85.20;;;;;;5013894;28;20183;-76
2022/06/23 00:45:10;;;;;;;2.53;1.90;;;23.80;85.00;;;;;;4970025;28;20231;-76
2022/06/23 00:47:59;;;;;;;2.95;2.08;;;23.90;85.00;;;;;;5013834;28;20196;-76
2022/06/23 00:51:01;;;;;;;2.55;1.95;;;23.80;85.00;;;;;;5027109;28;20213;-76
2022/06/23 00:53:44;;;;;;;3.10;2.20;;;23.90;85.00;;;;;;5043942;28;20186;-76
2022/06/23 00:56:30;;;;;;;5.07;2.05;;;23.80;84.90;;;;;;5053241;28;20236;-76
2022/06/23 00:59:13;;;;;;;4.47;2.20;;;23.90;85.00;;;;;;5053482;28;20263;-76
2022/06/23 01:02:04;;;;;;;4.38;2.17;;;23.80;84.90;;;;;;5053468;28;20279;-76
2022/06/23 01:04:50;;;;;;;3.08;1.85;;;23.80;84.90;;;;;;5054140;28;20183;-76
2022/06/23 01:08:03;;;;;;;4.80;2.25;;;23.80;84.90;;;;;;5053291;28;20272;-76
2022/06/23 01:10:43;;;;;;;3.38;1.90;;;23.80;84.80;;;;;;5053265;28;20206;-76
2022/06/23 01:13:28;;;;;;;4.05;2.00;;;23.80;84.50;;;;;;5052979;28;20179;-76
2022/06/23 01:16:01;;;;;;;3.05;2.20;;;23.80;84.40;;;;;;5053559;28;20179;-76
2022/06/23 01:18:38;;;;;;;3.03;2.33;;;23.80;84.40;;;;;;5052949;28;20194;-76
2022/06/23 01:21:32;;;;;;;4.97;2.00;;;23.80;84.30;;;;;;5044760;28;20674;-76
2022/06/23 01:23:57;;;;;;;2.83;2.17;;;23.80;84.40;;;;;;5033260;28;20281;-76
2022/06/23 01:27:01;;;;;;;6.15;2.03;;;23.80;84.30;;;;;;5033001;28;20267;-76
2022/06/23 01:29:52;;;;;;;3.70;2.05;;;23.80;84.30;;;;;;5034220;28;20199;-77
2022/06/23 01:32:26;;;;;;;2.40;1.73;;;23.80;84.00;;;;;;5033324;28;20172;-76
2022/06/23 01:35:16;;;;;;;3.28;1.88;;;23.80;84.10;;;;;;5033855;28;20177;-75
2022/06/23 01:38:15;;;;;;;1.85;1.70;;;23.80;84.10;;;;;;5033055;28;20195;-76
2022/06/23 01:40:54;;;;;;;3.33;1.75;;;23.80;84.10;;;;;;5034004;28;20214;-76
2022/06/23 01:44:13;;;;;;;2.05;1.90;;;23.80;84.00;;;;;;5032574;28;20262;-76
2022/06/23 01:46:43;;;;;;;2.53;1.90;;;23.80;84.00;;;;;;5024750;28;20235;-76
2022/06/23 01:49:26;;;;;;;2.55;1.92;;;23.80;84.00;;;;;;5049524;28;20199;-76
2022/06/23 01:52:19;;;;;;;4.28;2.40;;;23.80;84.00;;;;;;5043119;28;20241;-76
2022/06/23 01:54:54;;;;;;;2.38;2.00;;;23.80;84.00;;;;;;5030176;28;20202;-76
2022/06/23 01:57:52;;;;;;;3.42;2.03;;;23.80;83.90;;;;;;5045670;28;20175;-75
2022/06/23 02:00:25;;;;;;;2.70;2.03;;;23.80;83.80;;;;;;5032794;28;20619;-76
2022/06/23 02:03:24;;;;;;;2.15;1.70;;;23.80;83.90;;;;;;5031422;28;20183;-76
2022/06/23 02:06:02;;;;;;;3.47;1.90;;;23.80;83.90;;;;;;5032636;28;20249;-75
2022/06/23 02:09:06;;;;;;;4.00;1.85;;;23.80;84.00;;;;;;5032639;28;20730;-76
2022/06/23 02:11:43;;;;;;;3.90;1.85;;;23.80;84.00;;;;;;5031778;28;20198;-76
2022/06/23 02:14:52;;;;;;;2.20;1.92;;;23.80;84.00;;;;;;5032294;28;20193;-76
2022/06/23 02:17:39;;;;;;;2.40;1.80;;;23.80;84.00;;;;;;5032751;28;20194;-76
2022/06/23 02:20:46;;;;;;;2.88;1.92;;;23.80;84.10;;;;;;5015952;28;20223;-76
2022/06/23 02:23:32;;;;;;;3.83;2.10;;;23.80;84.00;;;;;;5044817;28;20188;-76
2022/06/23 02:26:19;;;;;;;2.15;1.80;;;23.80;84.10;;;;;;5051981;28;20182;-76
2022/06/23 02:29:20;;;;;;;4.43;1.90;;;23.80;84.10;;;;;;5052099;28;20209;-77
2022/06/23 02:32:06;;;;;;;3.67;2.22;;;23.80;84.20;;;;;;5052122;28;20189;-76
2022/06/23 02:34:45;;;;;;;2.70;1.90;;;23.80;84.10;;;;;;5051524;28;20178;-77
2022/06/23 02:37:51;;;;;;;2.65;1.95;;;23.80;84.20;;;;;;5052148;28;20181;-76
2022/06/23 02:40:32;;;;;;;3.60;2.22;;;23.80;84.10;;;;;;5024092;28;20684;-76
2022/06/23 02:43:13;;;;;;;3.13;2.00;;;23.70;84.20;;;;;;5030775;28;20180;-76
2022/06/23 02:46:03;;;;;;;4.30;2.13;;;23.80;84.30;;;;;;5048466;28;20233;-76
2022/06/23 02:49:19;;;;;;;3.05;2.25;;;23.70;84.10;;;;;;5029397;28;20321;-76
2022/06/23 02:52:15;;;;;;;2.40;1.83;;;23.70;84.20;;;;;;4989390;28;20211;-76
2022/06/23 02:55:20;;;;;;;2.45;1.83;;;23.80;84.30;;;;;;5043040;28;20197;-76
2022/06/23 02:58:04;;;;;;;2.75;2.00;;;23.70;84.30;;;;;;5051501;28;20568;-76
2022/06/23 03:00:44;;;;;;;3.40;1.80;;;23.70;84.30;;;;;;5051636;28;20681;-76
2022/06/23 03:03:59;;;;;;;2.63;1.90;;;23.80;84.50;;;;;;5051082;28;20178;-76
2022/06/23 03:06:45;;;;;;;3.03;1.90;;;23.80;84.40;;;;;;4994121;28;20192;-76
2022/06/23 03:09:51;;;;;;;2.10;1.90;;;23.70;84.40;;;;;;5051291;28;20285;-75
2022/06/23 03:12:47;;;;;;;2.58;1.80;;;23.80;84.40;;;;;;5040165;28;20754;-76
2022/06/23 03:15:33;;;;;;;2.60;1.90;;;23.70;84.40;;;;;;5053065;28;20186;-76
2022/06/23 03:18:08;;;;;;;2.05;1.90;;;23.80;84.50;;;;;;5055489;28;20231;-76
2022/06/23 03:20:52;;;;;;;2.60;1.88;;;23.80;84.60;;;;;;5030458;28;20246;-76
2022/06/23 03:23:43;;;;;;;2.95;1.90;;;23.80;84.60;;;;;;5048922;28;20244;-76
2022/06/23 03:26:18;;;;;;;2.33;1.83;;;23.70;84.40;;;;;;5048690;28;20266;-76
2022/06/23 03:28:51;;;;;;;2.85;1.88;;;23.70;84.40;;;;;;5035269;28;20302;-76
2022/06/23 03:31:59;;;;;;;1.80;1.70;;;23.70;84.50;;;;;;5035171;28;20183;-76
2022/06/23 03:34:38;;;;;;;2.60;1.90;;;23.70;84.40;;;;;;5035723;28;20619;-76
2022/06/23 03:37:31;;;;;;;3.03;1.88;;;23.70;84.40;;;;;;5035240;28;20187;-76
2022/06/23 03:43:32;;;;;;;2.25;1.90;;;23.80;84.40;;;;;;5034561;28;20176;-76
2022/06/23 03:46:05;;;;;;;2.85;2.00;;;23.80;84.60;;;;;;5034668;28;20178;-76
2022/06/23 03:48:50;;;;;;;1.85;1.65;;;23.70;84.40;;;;;;5034745;28;20171;-76
2022/06/23 03:51:23;;;;;;;2.67;2.15;;;23.70;84.40;;;;;;5042830;28;20262;-76
2022/06/23 03:54:16;;;;;;;1.70;1.58;;;23.70;84.30;;;;;;5053612;28;20183;-76
2022/06/23 03:57:02;;;;;;;2.58;1.98;;;23.70;84.40;;;;;;5054496;28;20289;-76
2022/06/23 03:59:41;;;;;;;2.63;1.95;;;23.70;84.30;;;;;;5054575;28;20202;-76
2022/06/23 04:02:27;;;;;;;2.58;1.88;;;23.70;85.10;;;;;;5055677;28;20555;-76
2022/06/23 04:05:10;;;;;;;3.15;1.90;;;23.70;84.40;;;;;;5053882;28;20221;-75
2022/06/23 04:07:49;;;;;;;2.80;2.03;;;23.70;84.30;;;;;;5054786;28;20248;-76
2022/06/23 04:10:27;;;;;;;2.63;1.95;;;23.70;84.30;;;;;;5054495;28;20293;-76
2022/06/23 04:13:01;;;;;;;2.00;1.50;;;23.70;84.30;;;;;;5053455;28;20187;-77
2022/06/23 04:15:39;;;;;;;2.42;1.90;;;23.70;84.20;;;;;;5037697;28;20183;-75
2022/06/23 04:18:16;;;;;;;2.55;1.63;;;23.70;84.20;;;;;;5054349;28;20175;-76
2022/06/23 04:20:57;;;;;;;2.67;1.77;;;23.70;84.40;;;;;;5045517;28;20211;-76
2022/06/23 04:23:30;;;;;;;2.22;2.00;;;23.70;84.30;;;;;;5038786;28;20568;-75
2022/06/23 04:26:28;;;;;;;1.70;1.60;;;23.70;84.30;;;;;;5033475;28;20709;-76
2022/06/23 04:29:05;;;;;;;2.00;1.75;;;23.70;85.00;;;;;;5050072;28;20219;-76
2022/06/23 04:31:42;;;;;;;1.83;1.73;;;23.70;84.30;;;;;;5034378;28;20194;-76
2022/06/23 04:34:21;;;;;;;2.42;1.77;;;23.70;84.20;;;;;;5033367;28;20259;-76
2022/06/23 04:36:48;;;;;;;2.30;1.65;;;23.70;84.20;;;;;;5033841;28;20286;-76
2022/06/23 04:39:41;;;;;;;2.53;1.73;;;23.70;84.20;;;;;;5033926;28;20616;-76
2022/06/23 04:42:21;;;;;;;2.55;2.00;;;23.70;84.10;;;;;;5013152;28;20211;-75
2022/06/23 04:44:54;;;;;;;2.15;1.83;;;23.70;84.20;;;;;;5033216;28;20222;-76
2022/06/23 04:47:31;;;;;;;2.63;1.40;;;23.70;84.20;;;;;;5033742;28;20556;-76
2022/06/23 04:50:10;;;;;;;2.65;1.80;;;23.70;84.30;;;;;;5037611;28;20682;-76
2022/06/23 04:52:50;;;;;;;1.65;1.55;;;23.70;84.20;;;;;;5028873;28;20697;-76
2022/06/23 04:55:24;;;;;;;1.88;1.77;;;23.70;84.00;;;;;;5053493;28;20265;-76
2022/06/23 04:58:13;;;;;;;2.22;1.70;;;23.70;84.00;;;;;;5054543;28;20171;-75
2022/06/23 05:00:50;;;;;;;1.80;1.70;;;23.70;84.00;;;;;;5053573;28;20234;-77
2022/06/23 05:03:19;;;;;;;4.20;1.98;;;23.70;84.00;;;;;;5052824;28;20175;-76
2022/06/23 05:06:19;;;;;;;2.10;1.90;;;23.70;83.80;;;;;;5053423;28;20186;-76
2022/06/23 05:08:48;;;;;;;2.13;1.80;;;23.70;83.70;;;;;;5053631;28;20285;-77
2022/06/23 05:11:41;;;;;;;2.67;1.83;;;23.70;83.60;;;;;;5053313;28;20190;-76
2022/06/23 05:14:25;;;;;;;3.45;1.77;;;23.70;83.50;;;;;;5052762;28;20174;-77
2022/06/23 05:17:02;;;;;;;2.22;1.83;;;23.80;83.60;;;;;;5036913;28;20185;-77
2022/06/23 05:19:36;;;;;;;1.83;1.70;;;23.70;83.50;;;;;;5052987;28;20218;-77
2022/06/23 05:22:18;;;;;;;2.88;1.63;;;23.80;83.60;;;;;;5033426;28;20282;-77
2022/06/23 05:24:47;;;;;;;2.97;1.73;;;23.70;83.50;;;;;;5019988;28;20710;-77
2022/06/23 05:27:29;;;;;;;2.80;2.30;;;23.70;83.40;;;;;;5019203;28;20191;-77
2022/06/23 05:30:23;;;;;;;1.70;1.60;;;23.70;83.40;;;;;;4997044;28;20200;-77
2022/06/23 05:32:57;;;;;;;2.10;1.90;;;23.80;83.30;;;;;;4996915;28;20659;-76
2022/06/23 05:35:32;;;;;;;4.30;2.05;;;23.80;83.40;;;;;;5012718;28;20191;-77
2022/06/23 05:38:09;;;;;;;2.10;1.90;;;23.70;83.30;;;;;;5013045;28;20187;-76
2022/06/23 05:40:47;;;;;;;2.35;2.10;;;23.70;83.30;;;;;;5012844;28;20215;-77
2022/06/23 05:43:14;;;;;;;1.98;1.67;;;23.70;83.30;;;;;;5013732;28;20204;-76
2022/06/23 05:45:49;;;;;;;2.70;1.70;;;23.80;83.30;;;;;;5013104;28;20184;-77
2022/06/23 05:48:39;;;;;;;2.45;1.80;;;23.80;83.30;;;;;;5014076;28;20175;-77
2022/06/23 05:51:10;;;;;;;2.10;1.60;;;23.70;83.10;;;;;;5021564;28;20194;-76
2022/06/23 05:53:56;;;;;;;2.13;1.67;;;23.70;83.00;;;;;;5041919;28;20198;-75
2022/06/23 05:56:38;;;;;;;2.58;1.88;;;23.70;82.90;;;;;;5034694;28;20184;-74
2022/06/23 05:59:19;;;;;;;2.63;2.25;;;23.70;83.20;;;;;;5035362;28;20214;-74
2022/06/23 06:02:01;;;;;;;2.85;1.90;;;23.70;83.20;;;;;;5038026;28;20215;-75
2022/06/23 06:04:36;;;;;;;2.67;1.90;;;23.70;83.10;;;;;;5007950;28;20192;-74
2022/06/23 06:07:05;;;;;;;2.03;1.50;;;23.70;83.00;;;;;;5034627;28;20179;-75
2022/06/23 06:09:36;;;;;;;1.90;1.80;;;23.80;83.10;;;;;;5017082;28;20195;-75
2022/06/23 06:12:11;;;;;;;2.40;1.70;;;23.70;82.80;;;;;;5034362;28;20214;-75
2022/06/23 06:14:46;;;;;;;3.08;2.22;;;23.80;83.00;;;;;;5033739;28;20190;-75
2022/06/23 06:17:21;;;;;;;3.47;2.10;;;23.70;82.80;;;;;;5035237;28;20171;-74
2022/06/23 06:19:48;;;;;;;3.05;2.03;;;23.70;82.80;;;;;;5050862;28;20218;-75
2022/06/23 06:23:04;;;;;;;2.10;1.77;;;23.80;83.00;;;;;;5037410;28;20172;-74
2022/06/23 06:25:37;;;;;;;2.38;1.98;;;23.80;82.90;;;;;;5014047;28;20231;-75
2022/06/23 06:28:21;;;;;;;2.78;2.03;;;23.80;82.90;;;;;;4996230;28;20183;-74
2022/06/23 06:30:53;;;;;;;2.45;2.25;;;23.80;82.90;;;;;;5009869;28;20191;-74
2022/06/23 06:33:42;;;;;;;3.35;2.00;;;23.80;82.90;;;;;;5015655;28;20186;-74
2022/06/23 06:36:40;;;;;;;2.55;1.80;;;23.70;82.80;;;;;;5032098;28;20241;-74
2022/06/23 06:39:14;;;;;;;2.20;2.00;;;23.80;83.20;;;;;;5031652;28;20211;-75
2022/06/23 06:41:58;;;;;;;2.83;1.92;;;23.70;83.10;;;;;;5031370;28;20238;-74
2022/06/23 06:44:25;;;;;;;2.67;1.92;;;23.80;83.30;;;;;;5031025;28;20214;-74
2022/06/23 06:46:51;;;;;;;3.05;1.98;;;23.80;83.00;;;;;;5031951;28;20183;-75
2022/06/23 06:49:21;;;;;;;4.45;2.45;;;23.80;82.90;;;;;;5031511;28;20219;-74
2022/06/23 06:51:49;;;;;;;2.40;2.08;;;23.80;82.90;;;;;;5022917;28;20271;-75
2022/06/23 06:54:32;;;;;;;1.75;1.65;;;23.80;82.90;;;;;;5051206;28;20269;-74
2022/06/23 06:57:04;;;;;;;2.75;1.90;;;23.80;83.00;;;;;;5051166;28;20190;-76
2022/06/23 06:59:56;;;;;;;3.45;1.80;;;23.80;83.10;;;;;;5051324;28;20344;-74
2022/06/23 07:02:34;;;;;;;2.15;1.63;;;23.80;83.10;;;;;;5015543;28;20574;-75
2022/06/23 07:05:24;;;;;;;3.65;2.13;;;23.80;83.10;;;;;;5030658;28;20182;-74
2022/06/23 07:08:13;;;;;;;4.78;2.20;;;23.80;83.10;;;;;;5031458;28;20206;-74
2022/06/23 07:10:56;;;;;;;4.38;2.22;;;23.70;82.80;;;;;;5031538;28;20211;-72
2022/06/23 07:13:27;;;;;;;2.92;2.00;;;23.80;83.00;;;;;;5030578;28;20585;-75
2022/06/23 07:16:35;;;;;;;3.47;1.90;;;23.80;83.30;;;;;;5012906;28;20192;-74
2022/06/23 07:19:28;;;;;;;3.50;2.10;;;23.80;83.40;;;;;;5011174;28;20234;-75
2022/06/23 07:22:25;;;;;;;2.05;1.95;;;23.80;83.50;;;;;;5041115;28;20211;-75
2022/06/23 07:25:02;;;;;;;4.32;2.30;;;23.80;83.50;;;;;;5029474;28;20217;-74
2022/06/23 07:27:44;;;;;;;3.17;2.35;;;23.70;83.60;;;;;;5050417;28;20201;-74
2022/06/23 07:30:21;;;;;;;1.92;1.80;;;23.70;83.70;;;;;;5051356;28;20213;-74
2022/06/23 07:33:01;;;;;;;3.25;2.50;;;23.70;83.90;;;;;;5036283;28;20187;-74
2022/06/23 07:35:48;;;;;;;2.10;1.90;;;23.80;84.10;;;;;;5014588;28;20623;-74
2022/06/23 07:38:38;;;;;;;3.55;2.38;;;23.70;84.20;;;;;;5030687;28;20221;-74
2022/06/23 07:41:24;;;;;;;2.75;1.98;;;23.70;84.10;;;;;;5014372;28;20223;-75
2022/06/23 07:44:24;;;;;;;2.80;1.95;;;23.70;84.20;;;;;;5014086;28;20206;-75
2022/06/23 07:46:50;;;;;;;3.67;1.98;;;23.80;84.30;;;;;;5014707;28;20179;-75
2022/06/23 07:49:17;;;;;;;1.90;1.80;;;23.80;84.50;;;;;;5014495;28;20225;-74
2022/06/23 07:51:44;;;;;;;3.70;2.20;;;23.70;84.30;;;;;;5023747;28;20191;-75
2022/06/23 07:54:18;;;;;;;2.47;2.08;;;23.80;84.40;;;;;;5050845;28;20550;-75
2022/06/23 07:56:45;;;;;;;2.50;1.90;;;23.80;84.40;;;;;;5050718;28;20185;-75
2022/06/23 07:59:16;;;;;;;3.83;2.15;;;23.80;84.50;;;;;;5050797;28;20230;-74
2022/06/23 08:02:17;;;;;;;2.67;1.77;;;23.80;84.70;;;;;;5051421;28;20216;-74
2022/06/23 08:04:59;;;;;;;2.78;2.17;;;23.80;84.70;;;;;;4998053;28;20184;-75
2022/06/23 08:07:26;;;;;;;3.40;1.90;;;23.80;84.30;;;;;;4998597;28;20183;-74
2022/06/23 08:10:06;;;;;;;2.97;1.63;;;23.80;84.40;;;;;;5003246;28;20215;-75
2022/06/23 08:12:55;;;;;;;4.10;2.03;;;23.80;84.30;;;;;;5033333;28;20179;-75
2022/06/23 08:18:26;;;;;;;2.15;1.75;;;23.80;84.70;;;;;;5034003;28;20188;-74
2022/06/23 08:21:04;;;;;;;2.55;1.92;;;23.80;84.30;;;;;;5042150;28;20214;-74
2022/06/23 08:23:38;;;;;;;5.00;1.90;;;23.80;84.30;;;;;;5036785;28;20179;-74
2022/06/23 08:26:10;;;;;;;3.92;1.80;;;23.80;84.10;;;;;;5054452;28;20171;-74
2022/06/23 08:28:38;;;;;;;2.85;1.80;;;23.80;83.70;;;;;;5053930;28;20239;-75
2022/06/23 08:31:04;;;;;;;2.20;1.75;;;23.80;83.30;;;;;;5053921;28;20190;-74
2022/06/23 08:33:33;;;;;;;4.07;2.20;;;23.80;83.40;;;;;;5053167;28;20194;-74
2022/06/23 08:36:13;;;;;;;2.80;2.08;;;23.80;82.90;;;;;;5047241;28;20575;-75
2022/06/23 08:38:54;;;;;;;2.25;1.67;;;23.80;82.90;;;;;;5033577;28;20274;-75
2022/06/23 08:42:27;;;;;;;3.97;1.88;;;23.80;82.90;;;;;;5033592;28;20306;-74
2022/06/23 08:45:20;;;;;;;3.40;2.30;;;23.80;82.90;;;;;;5008365;28;20199;-75
2022/06/23 08:47:58;;;;;;;3.20;2.15;;;23.80;82.40;;;;;;5033593;28;20176;-75
2022/06/23 08:50:54;;;;;;;5.00;2.20;;;23.90;82.30;;;;;;5040173;28;20202;-75
2022/06/23 08:53:48;;;;;;;4.25;1.90;;;23.90;82.30;;;;;;5042041;28;20251;-75
2022/06/23 08:56:24;;;;;;;2.47;2.08;;;23.90;82.40;;;;;;5029840;28;20211;-75
2022/06/23 08:59:07;;;;;;;2.60;1.70;;;23.90;82.20;;;;;;4999890;28;20207;-75
2022/06/23 09:01:45;;;;;;;2.28;1.70;;;23.90;82.30;;;;;;5033708;28;20242;-74
2022/06/23 09:04:38;;;;;;;3.88;1.90;;;23.90;82.10;;;;;;5033517;28;20181;-75
2022/06/23 09:07:19;;;;;;;3.65;1.95;;;23.90;82.00;;;;;;5033648;28;20175;-75
2022/06/23 09:10:08;;;;;;;3.80;1.90;;;23.90;82.10;;;;;;5033816;28;20713;-75
2022/06/23 09:12:46;;;;;;;3.38;1.55;;;23.90;82.00;;;;;;5033308;28;20297;-75
2022/06/23 09:15:23;;;;;;;4.35;1.80;;;23.90;82.10;;;;;;5032754;28;20179;-75
2022/06/23 09:17:55;;;;;;;2.80;1.83;;;23.90;82.00;;;;;;5033397;28;20194;-74
2022/06/23 09:20:24;;;;;;;2.03;1.63;;;24.00;82.10;;;;;;5039423;28;20250;-75
2022/06/23 09:23:20;;;;;;;3.25;1.60;;;24.00;82.00;;;;;;5028636;28;20175;-74
2022/06/23 09:25:48;;;;;;;3.40;1.92;;;24.00;82.00;;;;;;5053346;28;20187;-75
2022/06/23 09:28:18;;;;;;;2.33;1.80;;;23.90;82.00;;;;;;5036179;28;20273;-75
2022/06/23 09:31:18;;;;;;;2.22;1.40;;;24.00;82.00;;;;;;5053355;28;20274;-75
2022/06/23 09:34:33;;;;;;;3.17;1.88;;;23.90;81.90;;;;;;5053431;28;20187;-75
2022/06/23 09:37:19;;;;;;;4.55;1.90;;;23.90;81.90;;;;;;5054255;28;20186;-75
2022/06/23 09:40:06;;;;;;;2.92;1.85;;;23.90;82.00;;;;;;5056292;28;20210;-75
2022/06/23 09:42:59;;;;;;;5.05;2.67;;;23.90;82.00;;;;;;5027204;28;20222;-74
2022/06/23 09:45:49;;;;;;;6.80;4.57;;;24.00;82.20;;;;;;5018192;28;20187;-75
2022/06/23 09:49:03;;;;;;;2.55;2.00;;;23.90;82.10;;;;;;5019405;28;20214;-75
2022/06/23 09:51:34;;;;;;;14.05;9.90;;;24.00;82.20;;;;;;5014706;28;20257;-74
2022/06/23 09:54:27;;;;;;;5.88;4.28;;;23.90;82.20;;;;;;5035946;28;20550;-74
2022/06/23 09:57:28;;;;;;;17.02;10.35;;;23.90;82.80;;;;;;5036786;28;20190;-77
2022/06/23 10:00:19;;;;;;;12.27;9.15;;;23.90;82.30;;;;;;5037210;28;20298;-76
2022/06/23 10:03:14;;;;;;;9.77;7.85;;;24.00;82.40;;;;;;5015779;28;20195;-74
2022/06/23 10:06:18;;;;;;;11.93;8.45;;;23.90;82.60;;;;;;5032020;28;20188;-74
2022/06/23 10:09:21;;;;;;;13.02;10.23;;;23.90;82.90;;;;;;5001786;28;20220;-75
2022/06/23 10:12:10;;;;;;;12.38;8.88;;;24.00;82.60;;;;;;4999903;28;20202;-75
2022/06/23 10:15:01;;;;;;;13.60;9.82;;;24.00;82.60;;;;;;4997791;28;20201;-75
2022/06/23 10:18:03;;;;;;;12.40;8.65;;;23.90;84.00;;;;;;5002235;28;20199;-75
2022/06/23 10:20:56;;;;;;;14.10;11.07;;;23.90;83.10;;;;;;5027764;28;20214;-74
2022/06/23 10:23:44;;;;;;;16.33;11.20;;;24.00;83.10;;;;;;5037268;28;20183;-74
2022/06/23 10:26:47;;;;;;;15.02;9.77;;;24.00;83.10;;;;;;5015078;28;20187;-75
2022/06/23 10:29:28;;;;;;;13.93;9.05;;;24.00;83.40;;;;;;5020935;28;20207;-74
2022/06/23 10:32:54;;;;;;;13.73;10.70;;;23.90;83.30;;;;;;4996032;28;20178;-75
2022/06/23 10:35:42;;;;;;;19.00;10.85;;;24.00;83.10;;;;;;5007411;28;20288;-74
2022/06/23 10:38:38;;;;;;;16.15;10.50;;;24.00;83.20;;;;;;5012695;28;20179;-75
2022/06/23 10:41:47;;;;;;;15.25;10.70;;;24.00;83.00;;;;;;5031278;28;20218;-76
2022/06/23 10:44:15;;;;;;;15.00;10.55;;;24.00;83.10;;;;;;5031967;28;20202;-74
2022/06/23 10:46:57;;;;;;;15.73;10.30;;;24.00;83.10;;;;;;5024829;28;20207;-74
2022/06/23 10:49:55;;;;;;;16.63;10.57;;;24.00;82.90;;;;;;5022353;28;20218;-75
2022/06/23 10:52:54;;;;;;;15.25;8.90;;;24.00;83.10;;;;;;5018396;28;20183;-74
2022/06/23 10:55:56;;;;;;;13.00;9.38;;;24.00;83.90;;;;;;5032626;28;20187;-74
2022/06/23 10:58:54;;;;;;;12.95;10.10;;;24.00;83.10;;;;;;5009412;28;20313;-75
2022/06/23 11:01:49;;;;;;;13.38;9.35;;;24.00;83.10;;;;;;5021363;28;20233;-75
2022/06/23 11:04:33;;;;;;;14.68;10.00;;;24.00;83.20;;;;;;5052588;28;20186;-75
2022/06/23 11:07:38;;;;;;;13.90;9.50;;;24.00;83.10;;;;;;5052670;28;20277;-75
2022/06/23 11:10:39;;;;;;;13.98;8.85;;;24.00;83.00;;;;;;5014905;28;20300;-74
2022/06/23 11:13:46;;;;;;;12.98;8.93;;;24.00;83.00;;;;;;5051818;28;20554;-76
2022/06/23 11:16:41;;;;;;;13.57;9.55;;;24.10;82.80;;;;;;5053536;28;20189;-74
2022/06/23 11:19:38;;;;;;;12.38;8.77;;;24.00;82.70;;;;;;5054075;28;20218;-74
2022/06/23 11:22:28;;;;;;;13.00;9.05;;;24.00;82.70;;;;;;5043370;28;20217;-75
2022/06/23 11:25:19;;;;;;;12.23;9.05;;;24.10;82.60;;;;;;5050854;28;20178;-75
2022/06/23 11:28:18;;;;;;;13.52;8.88;;;24.00;82.50;;;;;;5052285;28;20201;-75
2022/06/23 11:30:47;;;;;;;12.13;9.15;;;24.10;82.60;;;;;;5037071;28;20239;-76
2022/06/23 11:33:27;;;;;;;12.32;8.68;;;24.00;82.50;;;;;;5016123;28;20191;-75
2022/06/23 11:36:30;;;;;;;11.27;8.45;;;24.00;82.40;;;;;;5017626;28;20274;-75
2022/06/23 11:39:13;;;;;;;12.20;8.55;;;24.10;82.50;;;;;;5019871;28;20214;-74
2022/06/23 11:41:54;;;;;;;10.38;8.20;;;24.10;82.50;;;;;;5019912;28;20261;-75
2022/06/23 11:44:35;;;;;;;12.18;7.88;;;24.00;82.00;;;;;;5035500;28;20189;-74
2022/06/23 11:47:30;;;;;;;12.48;7.93;;;24.10;82.20;;;;;;5019424;28;20207;-74
2022/06/23 11:50:18;;;;;;;12.85;8.43;;;24.10;82.10;;;;;;5038577;28;20221;-75
2022/06/23 11:52:54;;;;;;;9.05;7.60;;;24.00;82.00;;;;;;5047466;28;20175;-75
2022/06/23 11:55:48;;;;;;;10.85;7.82;;;24.10;82.00;;;;;;5054888;28;20178;-74
2022/06/23 11:58:38;;;;;;;10.63;7.72;;;24.10;81.90;;;;;;5056654;28;20166;-75
2022/06/23 12:01:20;;;;;;;10.23;7.45;;;24.00;81.70;;;;;;5055031;28;20206;-75
2022/06/23 12:04:19;;;;;;;11.20;7.97;;;24.10;81.60;;;;;;5054653;28;20182;-75
2022/06/23 12:07:23;;;;;;;9.10;6.47;;;24.10;81.70;;;;;;5054911;28;20179;-75
2022/06/23 12:10:16;;;;;;;9.88;7.97;;;24.10;81.60;;;;;;5049069;28;20316;-75
2022/06/23 12:12:46;;;;;;;10.48;7.53;;;24.10;81.50;;;;;;5054738;28;20263;-76
2022/06/23 12:15:21;;;;;;;11.30;7.45;;;24.10;81.40;;;;;;5054589;28;20232;-74
2022/06/23 12:17:58;;;;;;;7.82;6.45;;;24.10;81.40;;;;;;5054931;28;20719;-74
2022/06/23 12:20:54;;;;;;;9.77;7.13;;;24.10;81.30;;;;;;5054167;28;20233;-74
2022/06/23 12:23:46;;;;;;;9.15;6.43;;;24.10;81.30;;;;;;5043801;28;20562;-74
2022/06/23 12:26:47;;;;;;;12.48;7.55;;;24.10;81.30;;;;;;5054716;28;20612;-74
2022/06/23 12:29:33;;;;;;;11.75;7.25;;;24.10;81.40;;;;;;5054493;28;20236;-75
2022/06/23 12:32:34;;;;;;;9.65;6.82;;;24.10;81.40;;;;;;5037352;28;20290;-76
2022/06/23 12:35:31;;;;;;;8.68;6.63;;;24.10;81.30;;;;;;5054487;28;20200;-75
2022/06/23 12:38:06;;;;;;;7.95;6.45;;;24.10;81.30;;;;;;5054488;28;20261;-74
2022/06/23 12:41:10;;;;;;;9.30;6.82;;;24.10;81.30;;;;;;5054045;28;20213;-75
2022/06/23 12:43:56;;;;;;;8.60;6.30;;;24.10;81.20;;;;;;5053743;28;20214;-74
2022/06/23 12:46:54;;;;;;;8.98;5.97;;;24.10;81.10;;;;;;5054247;28;20224;-75
2022/06/23 12:49:44;;;;;;;7.78;5.80;;;24.10;81.00;;;;;;5054913;28;20202;-76
2022/06/23 12:52:41;;;;;;;10.15;6.20;;;24.10;81.00;;;;;;5036109;28;20187;-75
2022/06/23 12:55:54;;;;;;;6.65;5.70;;;24.10;81.10;;;;;;5034587;28;20183;-75
2022/06/23 12:58:44;;;;;;;9.70;6.10;;;24.10;81.10;;;;;;5034637;28;20198;-75
2022/06/23 13:01:43;;;;;;;9.10;5.93;;;24.10;81.10;;;;;;5017840;28;20211;-75
2022/06/23 13:04:21;;;;;;;7.32;5.65;;;24.10;81.10;;;;;;5015402;28;20203;-75
2022/06/23 13:06:59;;;;;;;8.30;5.63;;;24.10;81.10;;;;;;5034653;28;20229;-75
2022/06/23 13:09:42;;;;;;;9.00;5.95;;;24.10;81.00;;;;;;5034876;28;20207;-75
2022/06/23 13:12:21;;;;;;;8.52;5.80;;;24.10;81.10;;;;;;5035400;28;20282;-73
2022/06/23 13:15:16;;;;;;;6.78;5.40;;;24.10;81.00;;;;;;5033464;28;20187;-75
2022/06/23 13:18:10;;;;;;;7.78;5.47;;;24.10;80.90;;;;;;5033812;28;20183;-74
2022/06/23 13:21:20;;;;;;;7.55;5.97;;;24.10;80.90;;;;;;5041994;28;20363;-75
2022/06/23 13:23:51;;;;;;;8.50;5.40;;;24.10;80.60;;;;;;5051291;28;20179;-75
2022/06/23 13:26:46;;;;;;;8.55;5.32;;;24.10;80.70;;;;;;5055286;28;20653;-75
2022/06/23 13:29:22;;;;;;;6.75;5.20;;;24.10;80.60;;;;;;5054198;28;20198;-75
2022/06/23 13:32:14;;;;;;;7.47;5.15;;;24.10;80.70;;;;;;5055215;28;20187;-75
2022/06/23 13:35:14;;;;;;;7.32;5.10;;;24.10;80.60;;;;;;5056455;28;20191;-75
2022/06/23 13:38:17;;;;;;;7.32;4.68;;;24.10;80.60;;;;;;5054833;28;20201;-74
2022/06/23 13:41:28;;;;;;;5.72;4.43;;;24.10;80.60;;;;;;5054454;28;20218;-75
2022/06/23 13:44:09;;;;;;;10.80;5.10;;;24.10;80.70;;;;;;5019249;28;20194;-75
2022/06/23 13:46:44;;;;;;;7.00;4.70;;;24.10;80.30;;;;;;5056653;28;20617;-75
2022/06/23 13:49:24;;;;;;;4.57;4.00;;;24.10;80.40;;;;;;5055831;28;20197;-74
2022/06/23 13:52:09;;;;;;;7.63;5.03;;;24.10;80.40;;;;;;5047065;28;20246;-74
2022/06/23 13:54:51;;;;;;;6.82;4.38;;;24.10;80.30;;;;;;5039836;28;20190;-74
2022/06/23 13:57:28;;;;;;;6.65;4.38;;;24.10;80.40;;;;;;5042633;28;20187;-74
2022/06/23 14:00:08;;;;;;;5.80;4.22;;;24.10;80.40;;;;;;5017841;28;20230;-75
2022/06/23 14:03:05;;;;;;;6.40;4.68;;;24.20;80.50;;;;;;5048404;28;20716;-75
2022/06/23 14:05:54;;;;;;;7.57;4.28;;;24.10;80.30;;;;;;5033435;28;20198;-74
2022/06/23 14:08:46;;;;;;;6.40;4.35;;;24.20;80.50;;;;;;5014946;28;20268;-75
2022/06/23 14:12:08;;;;;;;6.10;4.20;;;24.10;80.60;;;;;;5030898;28;20191;-76
2022/06/23 14:14:44;;;;;;;6.88;4.28;;;24.20;80.60;;;;;;5023736;28;20206;-77
2022/06/23 14:17:13;;;;;;;8.15;4.07;;;24.10;80.30;;;;;;5034352;28;20183;-74
2022/06/23 14:19:55;;;;;;;5.60;3.70;;;24.10;80.40;;;;;;5031355;28;20651;-74
2022/06/23 14:22:37;;;;;;;5.40;3.80;;;24.10;80.60;;;;;;5045690;28;20203;-75
2022/06/23 14:25:34;;;;;;;5.57;3.95;;;24.10;80.40;;;;;;5014150;28;20245;-75
2022/06/23 14:28:05;;;;;;;4.75;3.55;;;24.20;80.50;;;;;;5047470;28;20249;-75